createdAt,value
2019-02-08T00:00:21.735Z,0
2019-02-08T00:01:22.355Z,0
2019-02-08T00:02:21.891Z,0
2019-02-08T00:03:21.873Z,0
2019-02-08T00:04:21.857Z,0
2019-02-08T00:05:21.830Z,0
2019-02-08T00:06:21.813Z,0
2019-02-08T00:07:21.807Z,0
2019-02-08T00:08:21.810Z,0
2019-02-08T00:09:22.558Z,0
2019-02-08T00:10:21.739Z,0
2019-02-08T00:11:21.714Z,0
2019-02-08T00:12:22.214Z,0
2019-02-08T00:13:21.683Z,0
2019-02-08T00:14:21.701Z,0
2019-02-08T00:15:21.450Z,0
2019-02-08T00:16:22.370Z,0
2019-02-08T00:17:21.388Z,0
2019-02-08T00:18:21.609Z,0
2019-02-08T00:19:21.573Z,0
2019-02-08T00:20:21.641Z,0
2019-02-08T00:21:21.575Z,0
2019-02-08T00:22:21.529Z,0
2019-02-08T00:23:33.364Z,0
2019-02-08T00:24:21.818Z,0
2019-02-08T00:25:21.533Z,0
2019-02-08T00:26:21.502Z,0
2019-02-08T00:27:21.443Z,0
2019-02-08T00:28:21.544Z,0
2019-02-08T00:29:21.398Z,0
2019-02-08T00:30:21.407Z,0
2019-02-08T00:31:22.056Z,0
2019-02-08T00:32:21.358Z,0
2019-02-08T00:33:21.319Z,0
2019-02-08T00:34:21.309Z,0
2019-02-08T00:35:21.297Z,0
2019-02-08T00:36:21.283Z,0
2019-02-08T00:37:21.013Z,0
2019-02-08T00:38:21.299Z,0
2019-02-08T00:39:21.308Z,0
2019-02-08T00:40:21.204Z,0
2019-02-08T00:41:21.176Z,0
2019-02-08T00:42:21.156Z,0
2019-02-08T00:43:21.137Z,0
2019-02-08T00:44:20.873Z,0
2019-02-08T00:45:21.108Z,0
2019-02-08T00:46:21.671Z,0
2019-02-08T00:47:21.063Z,0
2019-02-08T00:48:21.059Z,0
2019-02-08T00:49:21.038Z,0
2019-02-08T00:50:21.012Z,0
2019-02-08T00:51:21.005Z,0
2019-02-08T00:52:20.472Z,0
2019-02-08T00:53:21.190Z,0
2019-02-08T00:54:21.230Z,0
2019-02-08T00:55:20.925Z,0
2019-02-08T00:56:20.655Z,0
2019-02-08T00:57:20.888Z,0
2019-02-08T00:58:20.868Z,0
2019-02-08T00:59:20.602Z,0
2019-02-08T01:00:20.849Z,0
2019-02-08T01:01:21.429Z,0
2019-02-08T01:02:20.790Z,0
2019-02-08T01:03:20.775Z,0
2019-02-08T01:04:20.510Z,0
2019-02-08T01:05:20.748Z,0
2019-02-08T01:06:20.730Z,0
2019-02-08T01:07:20.779Z,0
2019-02-08T01:08:20.781Z,0
2019-02-08T01:09:21.020Z,0
2019-02-08T01:10:20.410Z,0
2019-02-08T01:11:20.648Z,0
2019-02-08T01:12:20.611Z,0
2019-02-08T01:13:20.617Z,0
2019-02-08T01:14:20.592Z,0
2019-02-08T01:15:20.561Z,0
2019-02-08T01:16:21.123Z,0
2019-02-08T01:17:20.544Z,0
2019-02-08T01:18:20.506Z,0
2019-02-08T01:19:20.493Z,0
2019-02-08T01:20:20.482Z,0
2019-02-08T01:21:20.212Z,0
2019-02-08T01:22:20.440Z,0
2019-02-08T01:23:20.961Z,0
2019-02-08T01:24:20.397Z,0
2019-02-08T01:25:20.140Z,0
2019-02-08T01:26:20.358Z,0
2019-02-08T01:27:20.337Z,0
2019-02-08T01:28:20.342Z,0
2019-02-08T01:29:20.302Z,0
2019-02-08T01:30:20.282Z,0
2019-02-08T01:31:20.271Z,0
2019-02-08T01:32:20.003Z,0
2019-02-08T01:33:20.227Z,0
2019-02-08T01:34:20.220Z,0
2019-02-08T01:35:19.953Z,0
2019-02-08T01:36:19.935Z,0
2019-02-08T01:37:20.166Z,0
2019-02-08T01:38:20.154Z,0
2019-02-08T01:39:19.630Z,0
2019-02-08T01:40:20.112Z,0
2019-02-08T01:41:20.088Z,0
2019-02-08T01:42:20.074Z,0
2019-02-08T01:43:20.050Z,0
2019-02-08T01:44:19.808Z,0
2019-02-08T01:45:20.021Z,0
2019-02-08T01:46:20.011Z,0
2019-02-08T01:47:19.992Z,0
2019-02-08T01:48:20.002Z,0
2019-02-08T01:49:19.951Z,0
2019-02-08T01:50:19.931Z,0
2019-02-08T01:51:19.918Z,0
2019-02-08T01:52:19.935Z,0
2019-02-08T01:53:19.887Z,0
2019-02-08T01:54:19.869Z,0
2019-02-08T01:55:19.880Z,0
2019-02-08T01:56:19.579Z,0
2019-02-08T01:57:19.565Z,0
2019-02-08T01:58:19.540Z,0
2019-02-08T01:59:19.523Z,0
2019-02-08T02:00:19.532Z,0
2019-02-08T02:01:19.738Z,0
2019-02-08T02:02:19.723Z,0
2019-02-08T02:03:19.455Z,0
2019-02-08T02:04:19.683Z,0
2019-02-08T02:05:19.666Z,0
2019-02-08T02:06:19.399Z,0
2019-02-08T02:07:19.138Z,0
2019-02-08T02:08:19.615Z,0
2019-02-08T02:09:19.598Z,0
2019-02-08T02:10:19.587Z,0
2019-02-08T02:11:19.573Z,0
2019-02-08T02:12:19.560Z,0
2019-02-08T02:13:19.280Z,0
2019-02-08T02:14:19.512Z,0
2019-02-08T02:15:19.513Z,0
2019-02-08T02:16:19.476Z,0
2019-02-08T02:17:19.206Z,0
2019-02-08T02:18:19.190Z,0
2019-02-08T02:19:19.423Z,0
2019-02-08T02:20:19.406Z,0
2019-02-08T02:21:19.398Z,0
2019-02-08T02:22:19.122Z,0
2019-02-08T02:23:19.415Z,0
2019-02-08T02:24:19.126Z,0
2019-02-08T02:25:19.353Z,0
2019-02-08T02:26:19.045Z,0
2019-02-08T02:27:19.032Z,0
2019-02-08T02:28:19.282Z,0
2019-02-08T02:29:19.250Z,0
2019-02-08T02:30:19.232Z,0
2019-02-08T02:31:19.218Z,0
2019-02-08T02:32:18.707Z,0
2019-02-08T02:33:18.991Z,0
2019-02-08T02:34:18.925Z,0
2019-02-08T02:35:19.190Z,0
2019-02-08T02:36:19.131Z,0
2019-02-08T02:37:19.109Z,0
2019-02-08T02:38:19.100Z,0
2019-02-08T02:39:19.089Z,0
2019-02-08T02:40:19.063Z,0
2019-02-08T02:41:19.034Z,0
2019-02-08T02:42:19.014Z,0
2019-02-08T02:43:18.752Z,0
2019-02-08T02:44:18.989Z,0
2019-02-08T02:45:18.962Z,0
2019-02-08T02:46:19.025Z,0
2019-02-08T02:47:18.969Z,0
2019-02-08T02:48:18.420Z,0
2019-02-08T02:49:18.890Z,0
2019-02-08T02:50:18.873Z,0
2019-02-08T02:51:18.866Z,0
2019-02-08T02:52:18.598Z,0
2019-02-08T02:53:18.863Z,0
2019-02-08T02:54:18.802Z,0
2019-02-08T02:55:18.794Z,0
2019-02-08T02:56:18.769Z,0
2019-02-08T02:57:18.755Z,0
2019-02-08T02:58:18.742Z,0
2019-02-08T02:59:18.720Z,0
2019-02-08T03:00:18.449Z,0
2019-02-08T03:01:18.690Z,0
2019-02-08T03:02:18.432Z,0
2019-02-08T03:03:18.411Z,0
2019-02-08T03:04:18.638Z,0
2019-02-08T03:05:18.620Z,0
2019-02-08T03:06:18.598Z,0
2019-02-08T03:07:18.351Z,0
2019-02-08T03:08:18.612Z,0
2019-02-08T03:09:18.549Z,0
2019-02-08T03:10:18.125Z,0
2019-02-08T03:11:18.269Z,0
2019-02-08T03:12:18.490Z,0
2019-02-08T03:13:18.520Z,0
2019-02-08T03:14:18.463Z,0
2019-02-08T03:15:17.939Z,0
2019-02-08T03:16:18.423Z,0
2019-02-08T03:17:18.409Z,0
2019-02-08T03:18:18.407Z,0
2019-02-08T03:19:18.116Z,0
2019-02-08T03:20:19.187Z,0
2019-02-08T03:21:18.340Z,0
2019-02-08T03:22:18.307Z,0
2019-02-08T03:23:18.293Z,0
2019-02-08T03:24:20.256Z,0
2019-02-08T03:25:18.280Z,0
2019-02-08T03:26:18.319Z,0
2019-02-08T03:27:18.227Z,0
2019-02-08T03:28:17.972Z,0
2019-02-08T03:29:18.190Z,0
2019-02-08T03:30:18.190Z,0
2019-02-08T03:31:18.002Z,0
2019-02-08T03:32:18.239Z,0
2019-02-08T03:33:18.162Z,0
2019-02-08T03:34:18.141Z,0
2019-02-08T03:35:17.839Z,0
2019-02-08T03:36:18.102Z,0
2019-02-08T03:37:18.050Z,0
2019-02-08T03:38:18.058Z,0
2019-02-08T03:39:18.031Z,0
2019-02-08T03:40:18.049Z,0
2019-02-08T03:41:17.986Z,0
2019-02-08T03:42:17.979Z,0
2019-02-08T03:43:17.948Z,0
2019-02-08T03:44:17.948Z,0
2019-02-08T03:45:17.912Z,0
2019-02-08T03:46:18.000Z,0
2019-02-08T03:47:17.882Z,0
2019-02-08T03:48:17.869Z,0
2019-02-08T03:49:17.894Z,0
2019-02-08T03:50:17.575Z,0
2019-02-08T03:51:17.555Z,0
2019-02-08T03:52:17.810Z,0
2019-02-08T03:53:17.777Z,0
2019-02-08T03:54:25.646Z,0
2019-02-08T03:55:17.753Z,0
2019-02-08T03:56:17.465Z,0
2019-02-08T03:57:17.453Z,0
2019-02-08T03:58:17.699Z,0
2019-02-08T03:59:17.657Z,0
2019-02-08T04:00:17.395Z,0
2019-02-08T04:01:17.628Z,0
2019-02-08T04:02:18.069Z,0
2019-02-08T04:03:17.095Z,0
2019-02-08T04:04:17.073Z,0
2019-02-08T04:05:17.563Z,0
2019-02-08T04:06:17.535Z,0
2019-02-08T04:07:17.519Z,0
2019-02-08T04:08:17.506Z,0
2019-02-08T04:09:17.529Z,0
2019-02-08T04:10:17.462Z,0
2019-02-08T04:11:17.453Z,0
2019-02-08T04:12:17.426Z,0
2019-02-08T04:13:17.414Z,0
2019-02-08T04:14:17.402Z,0
2019-02-08T04:15:17.387Z,0
2019-02-08T04:16:17.387Z,0
2019-02-08T04:17:17.343Z,0
2019-02-08T04:18:17.330Z,0
2019-02-08T04:19:17.306Z,0
2019-02-08T04:20:17.057Z,0
2019-02-08T04:21:17.272Z,0
2019-02-08T04:22:17.004Z,0
2019-02-08T04:23:16.994Z,0
2019-02-08T04:24:17.222Z,0
2019-02-08T04:25:16.952Z,0
2019-02-08T04:26:17.184Z,0
2019-02-08T04:27:17.166Z,0
2019-02-08T04:28:17.181Z,0
2019-02-08T04:29:17.127Z,0
2019-02-08T04:30:17.114Z,0
2019-02-08T04:31:16.854Z,0
2019-02-08T04:32:17.075Z,0
2019-02-08T04:33:16.818Z,0
2019-02-08T04:34:17.121Z,0
2019-02-08T04:35:16.780Z,0
2019-02-08T04:36:17.017Z,0
2019-02-08T04:37:17.026Z,0
2019-02-08T04:38:18.355Z,0
2019-02-08T04:39:16.952Z,0
2019-02-08T04:40:16.976Z,0
2019-02-08T04:41:16.677Z,0
2019-02-08T04:42:16.654Z,0
2019-02-08T04:43:16.889Z,0
2019-02-08T04:44:16.865Z,0
2019-02-08T04:45:16.853Z,0
2019-02-08T04:46:16.827Z,0
2019-02-08T04:47:16.812Z,0
2019-02-08T04:48:16.788Z,0
2019-02-08T04:49:16.782Z,0
2019-02-08T04:50:16.754Z,0
2019-02-08T04:51:16.494Z,0
2019-02-08T04:52:16.725Z,0
2019-02-08T04:53:16.713Z,0
2019-02-08T04:54:16.695Z,0
2019-02-08T04:55:16.693Z,0
2019-02-08T04:56:16.672Z,0
2019-02-08T04:57:16.636Z,0
2019-02-08T04:58:16.626Z,0
2019-02-08T04:59:16.604Z,0
2019-02-08T05:00:17.209Z,0
2019-02-08T05:01:16.341Z,0
2019-02-08T05:02:16.558Z,0
2019-02-08T05:03:16.544Z,0
2019-02-08T05:04:16.296Z,0
2019-02-08T05:05:15.996Z,0
2019-02-08T05:06:16.379Z,0
2019-02-08T05:07:16.470Z,0
2019-02-08T05:08:16.451Z,0
2019-02-08T05:09:16.186Z,0
2019-02-08T05:10:16.160Z,0
2019-02-08T05:11:16.137Z,0
2019-02-08T05:12:16.371Z,0
2019-02-08T05:13:16.112Z,0
2019-02-08T05:14:16.346Z,0
2019-02-08T05:15:16.316Z,0
2019-02-08T05:16:16.078Z,0
2019-02-08T05:17:16.033Z,0
2019-02-08T05:18:16.053Z,0
2019-02-08T05:19:16.258Z,0
2019-02-08T05:20:16.237Z,0
2019-02-08T05:21:16.133Z,0
2019-02-08T05:22:16.199Z,0
2019-02-08T05:23:16.179Z,0
2019-02-08T05:24:16.158Z,0
2019-02-08T05:25:16.139Z,0
2019-02-08T05:26:15.880Z,0
2019-02-08T05:27:15.860Z,0
2019-02-08T05:28:16.097Z,0
2019-02-08T05:29:15.826Z,0
2019-02-08T05:30:16.055Z,0
2019-02-08T05:31:16.041Z,0
2019-02-08T05:32:15.773Z,0
2019-02-08T05:33:16.013Z,0
2019-02-08T05:34:15.992Z,0
2019-02-08T05:35:15.746Z,0
2019-02-08T05:36:15.969Z,0
2019-02-08T05:37:15.698Z,0
2019-02-08T05:38:15.914Z,0
2019-02-08T05:39:15.401Z,0
2019-02-08T05:40:15.878Z,0
2019-02-08T05:41:15.618Z,0
2019-02-08T05:42:15.842Z,0
2019-02-08T05:43:15.828Z,0
2019-02-08T05:44:15.564Z,0
2019-02-08T05:45:15.790Z,0
2019-02-08T05:46:15.821Z,0
2019-02-08T05:47:15.758Z,0
2019-02-08T05:48:15.750Z,0
2019-02-08T05:49:15.724Z,0
2019-02-08T05:50:15.453Z,0
2019-02-08T05:51:15.688Z,0
2019-02-08T05:52:15.671Z,0
2019-02-08T05:53:15.448Z,0
2019-02-08T05:54:15.421Z,0
2019-02-08T05:55:15.369Z,0
2019-02-08T05:56:15.354Z,0
2019-02-08T05:57:15.342Z,0
2019-02-08T05:58:15.567Z,0
2019-02-08T05:59:15.296Z,0
2019-02-08T06:00:15.275Z,0
2019-02-08T06:01:15.265Z,0
2019-02-08T06:02:15.493Z,0
2019-02-08T06:03:15.255Z,0
2019-02-08T06:04:15.458Z,0
2019-02-08T06:05:15.195Z,4
2019-02-08T06:06:14.943Z,0
2019-02-08T06:07:15.401Z,4
2019-02-08T06:08:15.380Z,4
2019-02-08T06:09:15.410Z,4
2019-02-08T06:10:15.349Z,0
2019-02-08T06:11:15.089Z,4
2019-02-08T06:12:15.326Z,4
2019-02-08T06:13:15.313Z,8
2019-02-08T06:14:15.401Z,8
2019-02-08T06:15:15.265Z,12
2019-02-08T06:16:15.264Z,8
2019-02-08T06:17:15.009Z,16
2019-02-08T06:18:15.221Z,16
2019-02-08T06:19:15.200Z,16
2019-02-08T06:20:15.175Z,20
2019-02-08T06:21:14.906Z,24
2019-02-08T06:22:14.902Z,28
2019-02-08T06:23:15.129Z,32
2019-02-08T06:24:15.103Z,40
2019-02-08T06:25:15.111Z,44
2019-02-08T06:26:15.078Z,56
2019-02-08T06:27:14.805Z,64
2019-02-08T06:28:15.035Z,80
2019-02-08T06:29:14.775Z,76
2019-02-08T06:30:15.000Z,88
2019-02-08T06:31:14.987Z,104
2019-02-08T06:32:15.115Z,112
2019-02-08T06:33:14.960Z,132
2019-02-08T06:34:14.697Z,144
2019-02-08T06:35:14.672Z,184
2019-02-08T06:36:14.643Z,172
2019-02-08T06:37:14.880Z,216
2019-02-08T06:38:14.860Z,252
2019-02-08T06:39:14.848Z,272
2019-02-08T06:40:14.822Z,248
2019-02-08T06:41:14.814Z,264
2019-02-08T06:42:14.544Z,284
2019-02-08T06:43:14.781Z,272
2019-02-08T06:44:14.552Z,280
2019-02-08T06:45:14.740Z,292
2019-02-08T06:46:14.548Z,316
2019-02-08T06:47:14.719Z,332
2019-02-08T06:48:14.691Z,344
2019-02-08T06:49:14.667Z,372
2019-02-08T06:50:14.408Z,384
2019-02-08T06:51:14.630Z,460
2019-02-08T06:52:14.764Z,412
2019-02-08T06:53:14.594Z,392
2019-02-08T06:54:14.572Z,444
2019-02-08T06:55:18.033Z,448
2019-02-08T06:56:14.539Z,476
2019-02-08T06:57:14.325Z,516
2019-02-08T06:58:14.844Z,544
2019-02-08T06:59:14.491Z,528
2019-02-08T07:00:14.478Z,612
2019-02-08T07:01:14.461Z,616
2019-02-08T07:02:14.441Z,676
2019-02-08T07:03:14.211Z,712
2019-02-08T07:04:14.153Z,664
2019-02-08T07:05:14.378Z,644
2019-02-08T07:06:14.370Z,676
2019-02-08T07:07:14.346Z,700
2019-02-08T07:08:14.333Z,748
2019-02-08T07:09:14.062Z,828
2019-02-08T07:10:14.308Z,804
2019-02-08T07:11:14.048Z,844
2019-02-08T07:12:14.260Z,944
2019-02-08T07:13:14.261Z,960
2019-02-08T07:14:14.220Z,1052
2019-02-08T07:15:14.209Z,1052
2019-02-08T07:16:14.193Z,1032
2019-02-08T07:17:14.171Z,1064
2019-02-08T07:18:13.900Z,996
2019-02-08T07:19:13.888Z,1172
2019-02-08T07:20:13.869Z,1324
2019-02-08T07:21:14.097Z,1388
2019-02-08T07:22:14.079Z,1440
2019-02-08T07:23:14.073Z,1496
2019-02-08T07:24:14.050Z,1724
2019-02-08T07:25:20.989Z,1776
2019-02-08T07:26:14.028Z,1508
2019-02-08T07:27:13.999Z,1596
2019-02-08T07:28:13.978Z,1920
2019-02-08T07:29:13.963Z,1760
2019-02-08T07:30:13.962Z,1696
2019-02-08T07:31:13.925Z,1696
2019-02-08T07:32:13.912Z,1864
2019-02-08T07:33:13.900Z,2016
2019-02-08T07:34:13.886Z,1912
2019-02-08T07:35:13.864Z,1900
2019-02-08T07:36:13.840Z,1948
2019-02-08T07:37:13.865Z,2280
2019-02-08T07:38:14.103Z,2444
2019-02-08T07:39:13.789Z,2384
2019-02-08T07:40:13.765Z,2580
2019-02-08T07:41:13.761Z,2016
2019-02-08T07:42:13.494Z,2484
2019-02-08T07:43:13.789Z,2788
2019-02-08T07:44:13.711Z,2364
2019-02-08T07:45:13.689Z,2140
2019-02-08T07:46:13.671Z,2600
2019-02-08T07:47:13.401Z,3224
2019-02-08T07:48:13.634Z,3612
2019-02-08T07:49:13.617Z,2360
2019-02-08T07:50:13.101Z,2620
2019-02-08T07:51:13.580Z,3000
2019-02-08T07:52:13.071Z,3704
2019-02-08T07:53:13.548Z,3948
2019-02-08T07:54:13.530Z,4696
2019-02-08T07:55:13.319Z,3828
2019-02-08T07:56:13.505Z,3200
2019-02-08T07:57:13.479Z,3572
2019-02-08T07:58:13.472Z,3724
2019-02-08T07:59:13.450Z,3440
2019-02-08T08:00:13.444Z,2940
2019-02-08T08:01:13.434Z,4052
2019-02-08T08:02:14.388Z,4504
2019-02-08T08:03:13.384Z,5172
2019-02-08T08:04:13.362Z,4860
2019-02-08T08:05:13.104Z,5556
2019-02-08T08:06:13.089Z,5200
2019-02-08T08:07:13.312Z,4640
2019-02-08T08:08:13.301Z,4840
2019-02-08T08:09:13.031Z,5848
2019-02-08T08:10:13.267Z,6604
2019-02-08T08:11:13.273Z,5952
2019-02-08T08:12:13.245Z,4924
2019-02-08T08:13:13.221Z,5564
2019-02-08T08:14:13.200Z,5104
2019-02-08T08:15:12.941Z,4596
2019-02-08T08:16:13.167Z,4288
2019-02-08T08:17:13.157Z,4968
2019-02-08T08:18:13.134Z,4828
2019-02-08T08:19:12.875Z,4684
2019-02-08T08:20:13.099Z,4964
2019-02-08T08:21:12.854Z,5244
2019-02-08T08:22:13.117Z,5320
2019-02-08T08:23:13.068Z,4760
2019-02-08T08:24:13.037Z,4504
2019-02-08T08:25:13.025Z,4812
2019-02-08T08:26:13.009Z,6616
2019-02-08T08:27:13.001Z,6620
2019-02-08T08:28:13.008Z,6724
2019-02-08T08:29:12.953Z,5956
2019-02-08T08:30:12.977Z,6252
2019-02-08T08:31:12.934Z,6060
2019-02-08T08:32:12.909Z,6024
2019-02-08T08:33:12.886Z,5468
2019-02-08T08:34:12.892Z,5724
2019-02-08T08:35:12.853Z,6208
2019-02-08T08:36:12.844Z,6660
2019-02-08T08:37:12.823Z,5960
2019-02-08T08:38:12.809Z,6380
2019-02-08T08:39:12.798Z,6372
2019-02-08T08:40:12.521Z,5332
2019-02-08T08:41:12.507Z,5180
2019-02-08T08:42:12.750Z,5660
2019-02-08T08:43:12.732Z,6472
2019-02-08T08:44:12.723Z,6876
2019-02-08T08:45:12.694Z,7440
2019-02-08T08:46:12.689Z,8252
2019-02-08T08:47:12.427Z,9660
2019-02-08T08:48:12.654Z,9052
2019-02-08T08:49:12.629Z,9100
2019-02-08T08:50:12.613Z,8124
2019-02-08T08:51:12.599Z,8736
2019-02-08T08:52:12.664Z,8440
2019-02-08T08:53:12.573Z,8652
2019-02-08T08:54:12.555Z,9524
2019-02-08T08:55:12.541Z,9616
2019-02-08T08:56:12.526Z,9388
2019-02-08T08:57:12.507Z,10064
2019-02-08T08:58:12.511Z,9600
2019-02-08T08:59:12.483Z,10188
2019-02-08T09:00:12.473Z,9676
2019-02-08T09:01:12.445Z,10392
2019-02-08T09:02:12.429Z,9752
2019-02-08T09:03:12.419Z,9428
2019-02-08T09:04:12.408Z,9628
2019-02-08T09:05:12.388Z,11084
2019-02-08T09:06:15.802Z,11028
2019-02-08T09:07:20.848Z,10968
2019-02-08T09:08:12.363Z,10848
2019-02-08T09:09:12.332Z,11760
2019-02-08T09:10:13.150Z,11804
2019-02-08T09:11:12.049Z,11824
2019-02-08T09:12:12.043Z,11588
2019-02-08T09:13:19.440Z,11852
2019-02-08T09:14:12.250Z,11868
2019-02-08T09:15:12.230Z,11808
2019-02-08T09:16:12.223Z,12520
2019-02-08T09:17:12.204Z,11492
2019-02-08T09:18:12.205Z,9628
2019-02-08T09:19:12.181Z,8936
2019-02-08T09:20:11.688Z,9352
2019-02-08T09:21:12.154Z,13188
2019-02-08T09:22:12.141Z,14344
2019-02-08T09:23:11.873Z,14064
2019-02-08T09:24:11.855Z,11788
2019-02-08T09:25:12.103Z,12364
2019-02-08T09:26:12.087Z,11704
2019-02-08T09:27:11.819Z,11908
2019-02-08T09:28:12.048Z,8988
2019-02-08T09:29:12.042Z,7156
2019-02-08T09:30:12.036Z,6608
2019-02-08T09:31:11.762Z,6672
2019-02-08T09:32:11.747Z,9708
2019-02-08T09:33:11.985Z,12740
2019-02-08T09:34:11.971Z,12096
2019-02-08T09:35:11.950Z,10972
2019-02-08T09:36:11.938Z,10288
2019-02-08T09:37:11.934Z,12660
2019-02-08T09:38:11.911Z,13936
2019-02-08T09:39:11.902Z,11780
2019-02-08T09:40:11.739Z,11508
2019-02-08T09:41:11.627Z,12740
2019-02-08T09:42:11.863Z,12408
2019-02-08T09:43:11.607Z,11728
2019-02-08T09:44:11.884Z,10464
2019-02-08T09:45:11.843Z,10476
2019-02-08T09:46:11.562Z,8904
2019-02-08T09:47:11.545Z,8212
2019-02-08T09:48:11.771Z,10972
2019-02-08T09:49:11.766Z,12312
2019-02-08T09:50:11.741Z,12220
2019-02-08T09:51:11.734Z,11904
2019-02-08T09:52:11.730Z,10552
2019-02-08T09:53:11.712Z,8552
2019-02-08T09:54:11.701Z,8608
2019-02-08T09:55:11.687Z,10044
2019-02-08T09:56:11.726Z,11088
2019-02-08T09:57:11.665Z,12120
2019-02-08T09:58:11.638Z,10944
2019-02-08T09:59:11.629Z,11276
2019-02-08T10:00:11.614Z,11916
2019-02-08T10:01:11.604Z,10500
2019-02-08T10:02:11.585Z,10420
2019-02-08T10:03:11.572Z,9344
2019-02-08T10:04:11.601Z,9592
2019-02-08T10:05:11.541Z,11020
2019-02-08T10:06:11.297Z,11540
2019-02-08T10:07:11.514Z,11132
2019-02-08T10:08:11.501Z,9752
2019-02-08T10:09:11.491Z,9688
2019-02-08T10:10:11.468Z,9344
2019-02-08T10:11:11.462Z,8600
2019-02-08T10:12:11.201Z,9548
2019-02-08T10:13:11.434Z,9316
2019-02-08T10:14:11.417Z,9936
2019-02-08T10:15:11.407Z,9940
2019-02-08T10:16:11.387Z,10368
2019-02-08T10:17:11.380Z,10524
2019-02-08T10:18:11.119Z,9376
2019-02-08T10:19:11.341Z,9644
2019-02-08T10:20:11.085Z,10288
2019-02-08T10:21:11.326Z,11280
2019-02-08T10:22:11.306Z,10572
2019-02-08T10:23:11.290Z,9180
2019-02-08T10:24:11.029Z,9084
2019-02-08T10:25:11.263Z,8984
2019-02-08T10:26:12.707Z,8780
2019-02-08T10:27:10.986Z,8812
2019-02-08T10:28:11.220Z,9596
2019-02-08T10:29:10.963Z,9000
2019-02-08T10:30:11.196Z,9108
2019-02-08T10:31:11.172Z,8964
2019-02-08T10:32:11.158Z,9624
2019-02-08T10:33:10.911Z,11396
2019-02-08T10:34:10.881Z,9040
2019-02-08T10:35:11.121Z,11856
2019-02-08T10:36:10.847Z,10148
2019-02-08T10:37:11.085Z,10824
2019-02-08T10:38:11.090Z,8900
2019-02-08T10:39:11.053Z,7800
2019-02-08T10:40:10.800Z,7196
2019-02-08T10:41:11.030Z,7132
2019-02-08T10:42:11.013Z,7612
2019-02-08T10:43:11.038Z,8544
2019-02-08T10:44:10.986Z,8648
2019-02-08T10:45:10.723Z,9688
2019-02-08T10:46:10.957Z,7596
2019-02-08T10:47:10.943Z,9000
2019-02-08T10:48:10.928Z,8224
2019-02-08T10:49:10.915Z,9296
2019-02-08T10:50:10.658Z,9948
2019-02-08T10:51:10.894Z,10068
2019-02-08T10:52:10.875Z,9636
2019-02-08T10:53:10.893Z,8112
2019-02-08T10:54:10.601Z,5192
2019-02-08T10:55:10.578Z,7568
2019-02-08T10:56:19.559Z,9676
2019-02-08T10:57:10.551Z,8676
2019-02-08T10:58:10.783Z,9216
2019-02-08T10:59:10.769Z,10240
2019-02-08T11:00:10.899Z,13536
2019-02-08T11:01:10.739Z,11584
2019-02-08T11:02:10.475Z,10740
2019-02-08T11:03:10.715Z,10888
2019-02-08T11:04:10.690Z,10452
2019-02-08T11:05:10.428Z,11216
2019-02-08T11:06:10.677Z,11148
2019-02-08T11:07:10.407Z,11560
2019-02-08T11:08:10.391Z,10300
2019-02-08T11:09:10.628Z,10348
2019-02-08T11:10:10.604Z,9704
2019-02-08T11:11:10.594Z,9780
2019-02-08T11:12:10.583Z,11008
2019-02-08T11:13:10.317Z,11088
2019-02-08T11:14:10.304Z,10408
2019-02-08T11:15:10.687Z,9544
2019-02-08T11:16:10.542Z,10472
2019-02-08T11:17:10.505Z,11224
2019-02-08T11:18:10.493Z,9732
2019-02-08T11:19:10.482Z,7756
2019-02-08T11:20:10.238Z,9624
2019-02-08T11:21:10.465Z,11020
2019-02-08T11:22:10.195Z,11620
2019-02-08T11:23:10.419Z,10844
2019-02-08T11:24:10.403Z,9228
2019-02-08T11:25:10.394Z,8880
2019-02-08T11:26:10.375Z,9188
2019-02-08T11:27:10.367Z,9336
2019-02-08T11:28:10.346Z,8684
2019-02-08T11:29:10.088Z,10392
2019-02-08T11:30:10.323Z,9640
2019-02-08T11:31:10.338Z,13168
2019-02-08T11:32:10.054Z,10704
2019-02-08T11:33:10.282Z,10732
2019-02-08T11:34:10.263Z,6916
2019-02-08T11:35:10.251Z,7100
2019-02-08T11:36:10.233Z,6504
2019-02-08T11:37:10.230Z,6576
2019-02-08T11:38:10.214Z,4920
2019-02-08T11:39:10.192Z,6588
2019-02-08T11:40:10.182Z,7148
2019-02-08T11:41:10.163Z,8476
2019-02-08T11:42:10.151Z,6088
2019-02-08T11:43:10.141Z,5004
2019-02-08T11:44:09.876Z,5152
2019-02-08T11:45:10.116Z,4812
2019-02-08T11:46:10.096Z,3692
2019-02-08T11:47:10.075Z,5124
2019-02-08T11:48:09.829Z,4592
2019-02-08T11:49:10.049Z,6452
2019-02-08T11:50:10.034Z,7780
2019-02-08T11:51:10.026Z,8560
2019-02-08T11:52:10.031Z,7988
2019-02-08T11:53:09.993Z,5388
2019-02-08T11:54:09.975Z,6912
2019-02-08T11:55:09.971Z,7184
2019-02-08T11:56:09.947Z,6288
2019-02-08T11:57:09.688Z,6164
2019-02-08T11:58:09.680Z,5912
2019-02-08T11:59:09.408Z,6332
2019-02-08T12:00:09.895Z,6720
2019-02-08T12:01:09.627Z,5596
2019-02-08T12:02:09.862Z,5400
2019-02-08T12:03:09.603Z,6560
2019-02-08T12:04:09.841Z,6796
2019-02-08T12:05:09.816Z,6636
2019-02-08T12:06:09.816Z,7084
2019-02-08T12:07:09.792Z,7076
2019-02-08T12:08:09.784Z,7880
2019-02-08T12:09:09.764Z,8348
2019-02-08T12:10:09.751Z,5712
2019-02-08T12:11:09.748Z,6940
2019-02-08T12:12:09.716Z,6864
2019-02-08T12:13:09.708Z,6996
2019-02-08T12:14:09.691Z,7660
2019-02-08T12:15:09.434Z,6588
2019-02-08T12:16:09.717Z,6812
2019-02-08T12:17:09.675Z,6552
2019-02-08T12:18:09.637Z,5512
2019-02-08T12:19:09.615Z,5020
2019-02-08T12:20:09.601Z,5372
2019-02-08T12:21:09.587Z,5640
2019-02-08T12:22:09.582Z,5188
2019-02-08T12:23:09.558Z,4724
2019-02-08T12:24:09.561Z,4332
2019-02-08T12:25:09.533Z,4748
2019-02-08T12:26:09.534Z,4716
2019-02-08T12:27:09.508Z,4348
2019-02-08T12:28:09.253Z,4260
2019-02-08T12:29:09.478Z,4052
2019-02-08T12:30:09.456Z,3976
2019-02-08T12:31:09.448Z,3924
2019-02-08T12:32:09.437Z,3928
2019-02-08T12:33:09.444Z,3904
2019-02-08T12:34:09.162Z,3952
2019-02-08T12:35:09.142Z,3936
2019-02-08T12:36:09.375Z,4088
2019-02-08T12:37:09.362Z,4732
2019-02-08T12:38:09.343Z,3724
2019-02-08T12:39:09.837Z,3472
2019-02-08T12:40:09.080Z,4668
2019-02-08T12:41:17.799Z,7152
2019-02-08T12:42:09.292Z,6652
2019-02-08T12:43:09.273Z,6944
2019-02-08T12:44:09.271Z,6968
2019-02-08T12:45:09.245Z,5160
2019-02-08T12:46:08.977Z,4500
2019-02-08T12:47:08.972Z,4820
2019-02-08T12:48:08.951Z,5148
2019-02-08T12:49:09.193Z,4140
2019-02-08T12:50:09.189Z,3536
2019-02-08T12:51:09.151Z,3768
2019-02-08T12:52:08.888Z,3500
2019-02-08T12:53:08.875Z,3252
2019-02-08T12:54:09.112Z,3764
2019-02-08T12:55:09.116Z,4644
2019-02-08T12:56:08.835Z,5424
2019-02-08T12:57:09.065Z,6936
2019-02-08T12:58:09.075Z,10776
2019-02-08T12:59:09.040Z,8612
2019-02-08T13:00:09.034Z,6180
2019-02-08T13:01:09.005Z,6780
2019-02-08T13:02:08.996Z,6836
2019-02-08T13:03:08.741Z,6224
2019-02-08T13:04:10.353Z,6028
2019-02-08T13:05:08.949Z,4476
2019-02-08T13:06:08.934Z,3548
2019-02-08T13:07:10.251Z,3420
2019-02-08T13:08:08.897Z,3456
2019-02-08T13:09:08.887Z,3492
2019-02-08T13:10:08.876Z,2980
2019-02-08T13:11:08.865Z,3052
2019-02-08T13:12:08.601Z,3764
2019-02-08T13:13:08.837Z,4536
2019-02-08T13:14:08.846Z,3592
2019-02-08T13:15:08.801Z,3432
2019-02-08T13:16:08.785Z,3324
2019-02-08T13:17:08.522Z,3356
2019-02-08T13:18:08.766Z,3472
2019-02-08T13:19:08.747Z,4004
2019-02-08T13:20:08.737Z,3656
2019-02-08T13:21:08.712Z,4016
2019-02-08T13:22:08.746Z,4160
2019-02-08T13:23:08.442Z,6976
2019-02-08T13:24:08.671Z,5084
2019-02-08T13:25:08.420Z,5696
2019-02-08T13:26:08.628Z,4692
2019-02-08T13:27:08.362Z,3912
2019-02-08T13:28:08.606Z,3352
2019-02-08T13:29:08.589Z,3408
2019-02-08T13:30:08.336Z,4976
2019-02-08T13:31:08.561Z,4244
2019-02-08T13:32:08.554Z,3832
2019-02-08T13:33:08.037Z,3400
2019-02-08T13:34:08.519Z,3180
2019-02-08T13:35:08.955Z,3052
2019-02-08T13:36:08.238Z,2976
2019-02-08T13:37:08.521Z,2928
2019-02-08T13:38:08.209Z,2836
2019-02-08T13:39:08.447Z,2756
2019-02-08T13:40:07.930Z,2968
2019-02-08T13:41:08.164Z,2908
2019-02-08T13:42:08.488Z,2880
2019-02-08T13:43:07.884Z,2900
2019-02-08T13:44:07.882Z,3028
2019-02-08T13:45:07.858Z,3092
2019-02-08T13:46:08.090Z,3060
2019-02-08T13:47:08.321Z,3044
2019-02-08T13:48:08.061Z,2980
2019-02-08T13:49:08.300Z,3060
2019-02-08T13:50:08.296Z,3088
2019-02-08T13:51:08.278Z,3012
2019-02-08T13:52:08.250Z,3052
2019-02-08T13:53:08.232Z,3056
2019-02-08T13:54:08.211Z,3076
2019-02-08T13:55:07.952Z,3028